Time;durP1;ratioP1;P1;durP2;ratioP2;P2;SDS_P1;SDS_P2;PMS_P1;PMS_P2;Temp;Humidity;BMP_temperature;BMP_pressure;BME280_temperature;BME280_humidity;BME280_pressure;Samples;Min_cycle;Max_cycle;Signal;HPM_P1;HPM_P2
2022/09/15 00:00:49;;;;;;;;;;;14.00;99.90;;;;;;5074622;28;19955;-75
2022/09/15 00:03:14;;;;;;;;;;;13.90;99.90;;;;;;5074024;28;19909;-75
2022/09/15 00:05:40;;;;;;;;;;;14.00;99.90;;;;;;5074925;28;19915;-76
2022/09/15 00:08:05;;;;;;;;;;;14.00;99.90;;;;;;5074340;28;19908;-75
2022/09/15 00:10:31;;;;;;;;;;;14.00;99.90;;;;;;5075147;28;20257;-76
2022/09/15 00:12:57;;;;;;;;;;;14.00;99.90;;;;;;5074105;28;19912;-75
2022/09/15 00:15:22;;;;;;;;;;;14.00;99.90;;;;;;5074030;28;19947;-76
2022/09/15 00:17:49;;;;;;;;;;;13.90;99.90;;;;;;5072693;28;19908;-75
2022/09/15 00:20:15;;;;;;;;;;;13.90;99.90;;;;;;5075330;28;19912;-76
2022/09/15 00:22:41;;;;;;;;;;;13.90;99.90;;;;;;5075142;28;19908;-74
2022/09/15 00:25:07;;;;;;;;;;;13.90;99.90;;;;;;5074716;28;19915;-74
2022/09/15 00:27:33;;;;;;;;;;;13.90;99.90;;;;;;5075566;28;19912;-75
2022/09/15 00:29:58;;;;;;;;;;;13.90;99.90;;;;;;5074962;28;20254;-74
2022/09/15 00:32:24;;;;;;;;;;;13.90;99.90;;;;;;5075032;28;19919;-74
2022/09/15 00:34:50;;;;;;;;;;;13.90;99.90;;;;;;5074815;28;19913;-74
2022/09/15 00:37:16;;;;;;;;;;;13.90;99.90;;;;;;5075030;28;19999;-74
2022/09/15 00:39:41;;;;;;;;;;;13.90;99.90;;;;;;5074934;28;19913;-74
2022/09/15 00:42:11;;;;;;;;;;;13.90;99.90;;;;;;5074077;28;19912;-74
2022/09/15 00:44:43;;;;;;;;;;;13.90;99.90;;;;;;5074822;28;20400;-74
2022/09/15 00:47:08;;;;;;;;;;;13.90;99.90;;;;;;5074217;28;19915;-74
2022/09/15 00:49:35;;;;;;;;;;;13.80;99.90;;;;;;5074800;28;19912;-74
2022/09/15 00:52:09;;;;;;;;;;;13.80;99.90;;;;;;5073868;28;19912;-74
2022/09/15 00:54:38;;;;;;;;;;;13.80;99.90;;;;;;5074353;28;19912;-74
2022/09/15 00:57:07;;;;;;;;;;;13.80;99.90;;;;;;5072872;28;19915;-74
2022/09/15 00:59:34;;;;;;;;;;;13.80;99.90;;;;;;5074336;28;19912;-75
2022/09/15 01:02:04;;;;;;;;;;;13.80;99.90;;;;;;5072745;28;20345;-74
2022/09/15 01:04:30;;;;;;;;;;;13.80;99.90;;;;;;5074499;28;19978;-75
2022/09/15 01:07:00;;;;;;;;;;;13.80;99.90;;;;;;5055706;28;20403;-75
2022/09/15 01:09:28;;;;;;;;;;;13.80;99.90;;;;;;5074164;28;19909;-75
2022/09/15 01:11:54;;;;;;;;;;;13.80;99.90;;;;;;5073307;28;19920;-75
2022/09/15 01:14:19;;;;;;;;;;;13.80;99.90;;;;;;5072980;28;19912;-75
2022/09/15 01:16:45;;;;;;;;;;;13.80;99.90;;;;;;5073956;28;20006;-75
2022/09/15 01:19:20;;;;;;;;;;;13.80;99.90;;;;;;5073669;28;20361;-75
2022/09/15 01:21:46;;;;;;;;;;;13.70;99.90;;;;;;5073761;28;19916;-75
2022/09/15 01:24:21;;;;;;;;;;;13.80;99.90;;;;;;5074370;28;19909;-75
2022/09/15 01:26:59;;;;;;;;;;;13.70;99.90;;;;;;5073250;28;19909;-75
2022/09/15 01:29:27;;;;;;;;;;;13.70;99.90;;;;;;5073798;28;19908;-75
2022/09/15 01:34:49;;;;;;;;;;;13.70;99.90;;;;;;5073687;28;19922;-74
2022/09/15 01:37:16;;;;;;;;;;;13.60;99.90;;;;;;5073863;28;19912;-74
2022/09/15 01:39:44;;;;;;;;;;;13.60;99.90;;;;;;5073528;28;20392;-75
2022/09/15 01:42:12;;;;;;;;;;;13.60;99.90;;;;;;5073046;28;19916;-74
2022/09/15 01:44:41;;;;;;;;;;;13.50;99.90;;;;;;5073963;28;20022;-75
2022/09/15 01:47:12;;;;;;;;;;;13.50;99.90;;;;;;5072738;28;19969;-75
2022/09/15 01:49:51;;;;;;;;;;;13.60;99.90;;;;;;5073445;28;19948;-74
2022/09/15 01:52:19;;;;;;;;;;;13.60;99.90;;;;;;5072754;28;19912;-75
2022/09/15 01:54:48;;;;;;;;;;;13.60;99.90;;;;;;5074261;28;19912;-75
2022/09/15 01:57:16;;;;;;;;;;;13.50;99.90;;;;;;5072882;28;20358;-74
2022/09/15 01:59:43;;;;;;;;;;;13.50;99.90;;;;;;5073580;28;20387;-75
2022/09/15 02:02:31;;;;;;;;;;;13.50;99.90;;;;;;5073793;28;20120;-75
2022/09/15 02:05:19;;;;;;;;;;;13.50;99.90;;;;;;5071897;28;19908;-75
2022/09/15 02:07:46;;;;;;;;;;;13.50;99.90;;;;;;5073645;28;20320;-75
2022/09/15 02:10:29;;;;;;;;;;;13.50;99.90;;;;;;5072577;28;19908;-75
2022/09/15 02:13:05;;;;;;;;;;;13.50;99.90;;;;;;5072662;28;20334;-75
2022/09/15 02:15:45;;;;;;;;;;;13.50;99.90;;;;;;5073249;28;19916;-75
2022/09/15 02:18:13;;;;;;;;;;;13.40;99.90;;;;;;5072196;28;19914;-75
2022/09/15 02:20:48;;;;;;;;;;;13.50;99.90;;;;;;5071633;28;19951;-75
2022/09/15 02:23:18;;;;;;;;;;;13.50;99.90;;;;;;5072586;28;19909;-75
2022/09/15 02:25:45;;;;;;;;;;;13.50;99.90;;;;;;5073304;28;19954;-75
2022/09/15 02:28:12;;;;;;;;;;;13.40;99.90;;;;;;5072547;28;20155;-75
2022/09/15 02:30:40;;;;;;;;;;;13.40;99.90;;;;;;5072781;28;20304;-74
2022/09/15 02:33:09;;;;;;;;;;;13.40;99.90;;;;;;5072538;28;19917;-75
2022/09/15 02:35:35;;;;;;;;;;;13.40;99.90;;;;;;5073058;28;19908;-75
2022/09/15 02:38:01;;;;;;;;;;;13.40;99.90;;;;;;5072341;28;20003;-75
2022/09/15 02:40:27;;;;;;;;;;;13.40;99.90;;;;;;5072690;28;19916;-75
2022/09/15 02:42:59;;;;;;;;;;;13.40;99.90;;;;;;5072376;28;19948;-75
2022/09/15 02:45:25;;;;;;;;;;;13.40;99.90;;;;;;5072670;28;19920;-75
2022/09/15 02:47:51;;;;;;;;;;;13.40;99.90;;;;;;5071404;28;19913;-75
2022/09/15 02:50:17;;;;;;;;;;;13.30;99.90;;;;;;5071257;28;19916;-75
2022/09/15 02:52:43;;;;;;;;;;;13.40;99.90;;;;;;5073115;28;19916;-74
2022/09/15 02:55:09;;;;;;;;;;;13.30;99.90;;;;;;5072451;28;20387;-75
2022/09/15 02:57:35;;;;;;;;;;;13.40;99.90;;;;;;5071316;28;20280;-74
2022/09/15 03:00:13;;;;;;;;;;;13.30;99.90;;;;;;5072238;28;19908;-75
2022/09/15 03:02:47;;;;;;;;;;;13.30;99.90;;;;;;5072633;28;19915;-74
2022/09/15 03:05:14;;;;;;;;;;;13.30;99.90;;;;;;5071866;28;19944;-75
2022/09/15 03:07:39;;;;;;;;;;;13.20;99.90;;;;;;5072667;28;19999;-75
2022/09/15 03:10:06;;;;;;;;;;;13.20;99.90;;;;;;5071890;28;20344;-75
2022/09/15 03:12:42;;;;;;;;;;;13.20;99.90;;;;;;5072424;28;19999;-75
2022/09/15 03:15:09;;;;;;;;;;;13.20;99.90;;;;;;5072012;28;19912;-75
2022/09/15 03:17:35;;;;;;;;;;;13.10;99.90;;;;;;5071390;28;19908;-75
2022/09/15 03:20:01;;;;;;;;;;;13.10;99.90;;;;;;5071939;28;19908;-74
2022/09/15 03:22:26;;;;;;;;;;;13.10;99.90;;;;;;5072348;28;20268;-74
2022/09/15 03:24:52;;;;;;;;;;;13.10;99.90;;;;;;5072607;28;19916;-74
2022/09/15 03:27:18;;;;;;;;;;;13.00;99.90;;;;;;5072230;28;19908;-74
2022/09/15 03:29:43;;;;;;;;;;;12.90;99.90;;;;;;5071148;28;19908;-75
2022/09/15 03:32:09;;;;;;;;;;;12.80;99.90;;;;;;5071929;28;20415;-75
2022/09/15 03:34:35;;;;;;;;;;;12.80;99.90;;;;;;5072327;28;20370;-75
2022/09/15 03:37:00;;;;;;;;;;;12.80;99.90;;;;;;5071683;28;19915;-75
2022/09/15 03:39:26;;;;;;;;;;;12.70;99.90;;;;;;5071174;28;20273;-75
2022/09/15 03:41:52;;;;;;;;;;;12.70;99.90;;;;;;5072425;28;19952;-74
2022/09/15 03:44:17;;;;;;;;;;;12.60;99.90;;;;;;5071368;28;19960;-74
2022/09/15 03:46:43;;;;;;;;;;;12.50;99.90;;;;;;5071941;28;19908;-75
2022/09/15 03:49:09;;;;;;;;;;;12.50;99.90;;;;;;5071698;28;20377;-75
2022/09/15 03:51:34;;;;;;;;;;;12.40;99.90;;;;;;5073879;28;19920;-75
2022/09/15 03:54:00;;;;;;;;;;;12.40;99.90;;;;;;5075278;28;19919;-75
2022/09/15 03:56:27;;;;;;;;;;;12.40;99.90;;;;;;5075867;28;19908;-75
2022/09/15 03:58:52;;;;;;;;;;;12.30;99.90;;;;;;5075547;28;20083;-75
2022/09/15 04:01:19;;;;;;;;;;;12.30;99.90;;;;;;5074916;28;19913;-75
2022/09/15 04:03:45;;;;;;;;;;;12.20;99.90;;;;;;5075624;28;19915;-74
2022/09/15 04:06:11;;;;;;;;;;;12.20;99.90;;;;;;5074880;28;19916;-75
2022/09/15 04:08:37;;;;;;;;;;;12.20;99.90;;;;;;5075394;28;19912;-75
2022/09/15 04:11:04;;;;;;;;;;;12.20;99.90;;;;;;5074927;28;19916;-75
2022/09/15 04:13:30;;;;;;;;;;;12.20;99.90;;;;;;5075682;28;19912;-75
2022/09/15 04:16:06;;;;;;;;;;;12.10;99.90;;;;;;5074036;28;20332;-75
2022/09/15 04:18:32;;;;;;;;;;;12.10;99.90;;;;;;5075368;28;19918;-74
2022/09/15 04:20:59;;;;;;;;;;;12.10;99.90;;;;;;5074662;28;20293;-75
2022/09/15 04:23:25;;;;;;;;;;;12.10;99.90;;;;;;5075284;28;19908;-75
2022/09/15 04:25:55;;;;;;;;;;;12.00;99.90;;;;;;5075369;28;19909;-75
2022/09/15 04:28:20;;;;;;;;;;;12.10;99.90;;;;;;5074732;28;19916;-74
2022/09/15 04:30:46;;;;;;;;;;;12.00;99.90;;;;;;5074754;28;20357;-75
2022/09/15 04:33:12;;;;;;;;;;;12.00;99.90;;;;;;5074613;28;20062;-75
2022/09/15 04:35:38;;;;;;;;;;;11.90;99.90;;;;;;5074883;28;19909;-74
2022/09/15 04:38:03;;;;;;;;;;;11.90;99.90;;;;;;5074562;28;20407;-75
2022/09/15 04:40:29;;;;;;;;;;;11.90;99.90;;;;;;5074934;28;19959;-75
2022/09/15 04:42:55;;;;;;;;;;;11.90;99.90;;;;;;5073662;28;19915;-75
2022/09/15 04:45:20;;;;;;;;;;;11.80;99.90;;;;;;5074269;28;19995;-75
2022/09/15 04:47:50;;;;;;;;;;;11.80;99.90;;;;;;5074067;28;20246;-75
2022/09/15 04:50:16;;;;;;;;;;;11.80;99.90;;;;;;5074002;28;19909;-74
2022/09/15 04:52:41;;;;;;;;;;;11.80;99.90;;;;;;5074574;28;19922;-75
2022/09/15 04:55:07;;;;;;;;;;;11.80;99.90;;;;;;5074649;28;20003;-75
2022/09/15 04:57:33;;;;;;;;;;;11.80;99.90;;;;;;5073699;28;19912;-74
2022/09/15 04:59:58;;;;;;;;;;;11.70;99.90;;;;;;5074998;28;20341;-75
2022/09/15 05:02:24;;;;;;;;;;;11.80;99.90;;;;;;5074116;28;19908;-74
2022/09/15 05:04:50;;;;;;;;;;;11.70;99.90;;;;;;5074747;28;19954;-75
2022/09/15 05:07:16;;;;;;;;;;;11.70;99.90;;;;;;5074045;28;19912;-75
2022/09/15 05:09:42;;;;;;;;;;;11.70;99.90;;;;;;5074223;28;19916;-75
2022/09/15 05:12:07;;;;;;;;;;;11.60;99.90;;;;;;5073621;28;19913;-75
2022/09/15 05:14:33;;;;;;;;;;;11.60;99.90;;;;;;5074385;28;19919;-74
2022/09/15 05:16:59;;;;;;;;;;;11.60;99.90;;;;;;5074173;28;19995;-74
2022/09/15 05:19:24;;;;;;;;;;;11.60;99.90;;;;;;5073403;28;19915;-74
2022/09/15 05:21:50;;;;;;;;;;;11.60;99.90;;;;;;5072801;28;19908;-74
2022/09/15 05:24:15;;;;;;;;;;;11.50;99.90;;;;;;5072017;28;20331;-75
2022/09/15 05:26:41;;;;;;;;;;;11.60;99.90;;;;;;5073909;28;19915;-74
2022/09/15 05:29:07;;;;;;;;;;;11.50;99.90;;;;;;5072392;28;20375;-74
2022/09/15 05:31:33;;;;;;;;;;;11.50;99.90;;;;;;5074817;28;19975;-74
2022/09/15 05:33:59;;;;;;;;;;;11.50;99.90;;;;;;5074385;28;19912;-75
2022/09/15 05:36:24;;;;;;;;;;;11.50;99.90;;;;;;5073667;28;19909;-75
2022/09/15 05:38:51;;;;;;;;;;;11.50;99.90;;;;;;5074357;28;20015;-75
2022/09/15 05:41:17;;;;;;;;;;;11.50;99.90;;;;;;5072726;28;20369;-75
2022/09/15 05:43:44;;;;;;;;;;;11.50;99.90;;;;;;5073550;28;19955;-74
2022/09/15 05:46:10;;;;;;;;;;;11.60;99.90;;;;;;5073129;28;19919;-75
2022/09/15 05:48:35;;;;;;;;;;;11.60;99.90;;;;;;5073876;28;19909;-75
2022/09/15 05:51:01;;;;;;;;;;;11.60;99.90;;;;;;5073428;28;19966;-75
2022/09/15 05:53:27;;;;;;;;;;;11.60;99.90;;;;;;5071774;28;20022;-76
2022/09/15 05:55:53;;;;;;;;;;;11.70;99.90;;;;;;5072316;28;19919;-74
2022/09/15 05:58:19;;;;;;;;;;;11.70;99.90;;;;;;5071606;28;19915;-74
2022/09/15 06:00:45;;;;;;;;;;;11.70;99.90;;;;;;5073532;28;19909;-73
2022/09/15 06:03:14;;;;;;;;;;;11.80;99.90;;;;;;5072843;28;20361;-74
2022/09/15 06:05:39;;;;;;;;;;;11.80;99.90;;;;;;5073015;28;19931;-74
2022/09/15 06:08:05;;;;;;;;;;;11.90;99.90;;;;;;5073125;28;20353;-74
2022/09/15 06:10:30;;;;;;;;;;;11.90;99.90;;;;;;5072675;28;19962;-75
2022/09/15 06:12:56;;;;;;;;;;;11.90;99.90;;;;;;5072717;28;19920;-74
2022/09/15 06:15:22;;;;;;;;;;;12.00;99.90;;;;;;5070981;28;19908;-74
2022/09/15 06:17:48;;;;;;;;;;;12.00;99.90;;;;;;5072789;28;19915;-75
2022/09/15 06:20:13;;;;;;;;;;;12.00;99.90;;;;;;5072850;28;20304;-75
2022/09/15 06:22:39;;;;;;;;;;;12.10;99.90;;;;;;5073211;28;19916;-74
2022/09/15 06:25:05;;;;;;;;;;;12.10;99.90;;;;;;5072927;28;20385;-74
2022/09/15 06:27:30;;;;;;;;;;;12.10;99.90;;;;;;5072451;28;19948;-75
2022/09/15 06:29:56;;;;;;;;;;;12.10;99.90;;;;;;5071905;28;19956;-74
2022/09/15 06:32:22;;;;;;;;;;;12.10;99.90;;;;;;5072244;28;19956;-74
2022/09/15 06:34:47;;;;;;;;;;;12.20;99.90;;;;;;5072968;28;19912;-73
2022/09/15 06:37:13;;;;;;;;;;;12.20;99.90;;;;;;5072343;28;19936;-74
2022/09/15 06:39:39;;;;;;;;;;;12.20;99.90;;;;;;5072925;28;20300;-73
2022/09/15 06:42:04;;;;;;;;;;;12.30;99.90;;;;;;5071614;28;19908;-73
2022/09/15 06:44:30;;;;;;;;;;;12.30;99.90;;;;;;5071980;28;20361;-73
2022/09/15 06:46:55;;;;;;;;;;;12.40;99.90;;;;;;5072658;28;19940;-74
2022/09/15 06:49:21;;;;;;;;;;;12.40;99.90;;;;;;5072304;28;19915;-74
2022/09/15 06:51:47;;;;;;;;;;;12.50;99.90;;;;;;5072767;28;19912;-74
2022/09/15 06:54:14;;;;;;;;;;;12.50;99.90;;;;;;5071776;28;19912;-74
2022/09/15 06:56:41;;;;;;;;;;;12.60;99.90;;;;;;5072724;28;19915;-74
2022/09/15 06:59:08;;;;;;;;;;;12.50;99.90;;;;;;5072469;28;20415;-74
2022/09/15 07:01:34;;;;;;;;;;;12.50;99.90;;;;;;5072426;28;19909;-74
2022/09/15 07:04:00;;;;;;;;;;;12.50;99.90;;;;;;5072697;28;19909;-74
2022/09/15 07:06:30;;;;;;;;;;;12.60;99.90;;;;;;5072019;28;19909;-74
2022/09/15 07:08:57;;;;;;;;;;;12.60;99.90;;;;;;5072516;28;20375;-74
2022/09/15 07:11:23;;;;;;;;;;;12.60;99.90;;;;;;5074479;28;20198;-73
2022/09/15 07:13:48;;;;;;;;;;;12.70;99.90;;;;;;5083224;28;19912;-73
2022/09/15 07:16:14;;;;;;;;;;;12.70;99.90;;;;;;5081575;28;19908;-73
2022/09/15 07:18:40;;;;;;;;;;;12.70;99.90;;;;;;5092406;28;20281;-74
2022/09/15 07:21:07;;;;;;;;;;;12.70;99.90;;;;;;5092820;28;19927;-74
2022/09/15 07:23:33;;;;;;;;;;;12.70;99.90;;;;;;5084684;28;19921;-75
2022/09/15 07:26:18;;;;;;;;;;;12.80;99.90;;;;;;5083948;28;19915;-75
2022/09/15 07:28:44;;;;;;;;;;;12.90;99.90;;;;;;5082281;28;19916;-75
2022/09/15 07:31:12;;;;;;;;;;;12.90;99.90;;;;;;5085779;28;19912;-75
2022/09/15 07:33:38;;;;;;;;;;;13.00;99.90;;;;;;5083390;28;19918;-74
2022/09/15 07:36:05;;;;;;;;;;;13.00;99.90;;;;;;5078081;28;19909;-74
2022/09/15 07:38:31;;;;;;;;;;;13.10;99.90;;;;;;5075366;28;19912;-75
2022/09/15 07:41:17;;;;;;;;;;;13.20;99.90;;;;;;5076297;28;19908;-74
2022/09/15 07:43:50;;;;;;;;;;;13.30;99.90;;;;;;5073871;28;20409;-73
2022/09/15 07:46:16;;;;;;;;;;;13.30;99.90;;;;;;5075403;28;19915;-75
2022/09/15 07:48:45;;;;;;;;;;;13.30;99.90;;;;;;5075730;28;20305;-75
2022/09/15 07:51:11;;;;;;;;;;;13.40;99.90;;;;;;5075831;28;19917;-75
2022/09/15 07:53:36;;;;;;;;;;;13.40;99.90;;;;;;5075253;28;19919;-75
2022/09/15 07:56:02;;;;;;;;;;;13.50;99.90;;;;;;5075775;28;20002;-75
2022/09/15 07:58:28;;;;;;;;;;;13.50;99.90;;;;;;5075108;28;20377;-74
2022/09/15 08:00:59;;;;;;;;;;;13.60;99.90;;;;;;5075724;28;19947;-75
2022/09/15 08:03:25;;;;;;;;;;;13.60;99.90;;;;;;5074763;28;19975;-75
2022/09/15 08:05:55;;;;;;;;;;;13.70;99.90;;;;;;5075342;28;19908;-75
2022/09/15 08:08:21;;;;;;;;;;;13.80;99.90;;;;;;5073894;28;19932;-75
2022/09/15 08:10:46;;;;;;;;;;;13.80;99.90;;;;;;5075505;28;20346;-73
2022/09/15 08:13:12;;;;;;;;;;;13.80;99.90;;;;;;5075413;28;19912;-74
2022/09/15 08:15:37;;;;;;;;;;;14.00;99.90;;;;;;5074947;28;19935;-73
2022/09/15 08:18:03;;;;;;;;;;;14.10;99.90;;;;;;5075775;28;19957;-74
2022/09/15 08:20:30;;;;;;;;;;;14.30;99.90;;;;;;5073249;28;19916;-74
2022/09/15 08:22:55;;;;;;;;;;;14.40;99.90;;;;;;5075285;28;20000;-75
2022/09/15 08:25:21;;;;;;;;;;;14.50;99.90;;;;;;5074610;28;19943;-74
2022/09/15 08:27:47;;;;;;;;;;;14.70;99.90;;;;;;5074937;28;19958;-75
2022/09/15 08:30:12;;;;;;;;;;;14.90;99.90;;;;;;5075489;28;19913;-75
2022/09/15 08:32:38;;;;;;;;;;;15.10;99.90;;;;;;5074447;28;19919;-75
2022/09/15 08:35:04;;;;;;;;;;;15.20;99.90;;;;;;5083631;28;19966;-75
2022/09/15 08:37:30;;;;;;;;;;;15.10;99.90;;;;;;5084233;28;19909;-75
2022/09/15 08:39:55;;;;;;;;;;;15.00;99.90;;;;;;5093859;28;19908;-75
2022/09/15 08:42:22;;;;;;;;;;;14.90;99.90;;;;;;5094423;28;20345;-74
2022/09/15 08:45:17;;;;;;;;;;;14.90;99.90;;;;;;5092358;28;20429;-75
2022/09/15 08:47:46;;;;;;;;;;;14.90;99.90;;;;;;5060721;28;19916;-75
2022/09/15 08:50:19;;;;;;;;;;;15.00;99.90;;;;;;5074525;28;19916;-75
2022/09/15 08:52:47;;;;;;;;;;;15.00;99.90;;;;;;5074605;28;19935;-75
2022/09/15 08:55:16;;;;;;;;;;;15.00;99.90;;;;;;5074962;28;19913;-75
2022/09/15 08:57:42;;;;;;;;;;;15.10;99.90;;;;;;5074218;28;19909;-75
2022/09/15 09:00:15;;;;;;;;;;;15.20;99.90;;;;;;5074374;28;20401;-75
2022/09/15 09:02:52;;;;;;;;;;;15.20;99.90;;;;;;5074060;28;19915;-75
2022/09/15 09:05:18;;;;;;;;;;;15.10;99.90;;;;;;5074259;28;19991;-74
2022/09/15 09:07:50;;;;;;;;;;;15.10;99.90;;;;;;5074115;28;19908;-75
2022/09/15 09:10:24;;;;;;;;;;;15.20;99.90;;;;;;5075344;28;19958;-75
2022/09/15 09:12:52;;;;;;;;;;;15.30;99.90;;;;;;5076241;28;19935;-75
2022/09/15 09:15:36;;;;;;;;;;;15.30;99.90;;;;;;5084851;28;19920;-75
2022/09/15 09:18:08;;;;;;;;;;;15.30;99.90;;;;;;5084307;28;19930;-75
2022/09/15 09:20:42;;;;;;;;;;;15.40;99.90;;;;;;5094549;28;19912;-75
2022/09/15 09:23:12;;;;;;;;;;;15.40;99.90;;;;;;5094452;28;19915;-74
2022/09/15 09:25:39;;;;;;;;;;;15.50;99.90;;;;;;5094104;28;19977;-74
2022/09/15 09:28:05;;;;;;;;;;;15.70;99.90;;;;;;5094172;28;19908;-74
2022/09/15 09:30:31;;;;;;;;;;;15.80;99.90;;;;;;5093329;28;20304;-75
2022/09/15 09:33:03;;;;;;;;;;;15.90;99.90;;;;;;5110184;28;19912;-75
2022/09/15 09:35:35;;;;;;;;;;;15.90;99.90;;;;;;5093609;28;19954;-74
2022/09/15 09:38:01;;;;;;;;;;;16.00;99.90;;;;;;5094114;28;19908;-75
2022/09/15 09:40:29;;;;;;;;;;;16.00;99.90;;;;;;5093550;28;19908;-75
2022/09/15 09:42:55;;;;;;;;;;;16.00;99.90;;;;;;5093894;28;19994;-75
2022/09/15 09:45:21;;;;;;;;;;;16.00;99.90;;;;;;5093562;28;19931;-75
2022/09/15 09:47:47;;;;;;;;;;;16.10;99.90;;;;;;5093543;28;19958;-75
2022/09/15 09:50:31;;;;;;;;;;;16.00;99.90;;;;;;5093645;28;19939;-75
2022/09/15 09:52:57;;;;;;;;;;;16.00;99.90;;;;;;5092497;28;20372;-74
2022/09/15 09:55:23;;;;;;;;;;;16.00;99.90;;;;;;5093258;28;19941;-75
2022/09/15 09:57:49;;;;;;;;;;;16.00;99.90;;;;;;5093678;28;19975;-75
2022/09/15 10:00:38;;;;;;;;;;;15.90;99.90;;;;;;5093735;28;19912;-74
2022/09/15 10:03:22;;;;;;;;;;;16.00;99.90;;;;;;5090657;28;19912;-74
2022/09/15 10:06:03;;;;;;;;;;;16.00;99.90;;;;;;5093805;28;20345;-74
2022/09/15 10:08:28;;;;;;;;;;;16.10;99.90;;;;;;5092891;28;19908;-74
2022/09/15 10:10:57;;;;;;;;;;;16.20;99.90;;;;;;5092294;28;19996;-75
2022/09/15 10:13:22;;;;;;;;;;;16.20;99.90;;;;;;5093030;28;19923;-75
2022/09/15 10:15:56;;;;;;;;;;;16.20;99.90;;;;;;5093360;28;19908;-75
2022/09/15 10:18:25;;;;;;;;;;;16.20;99.90;;;;;;5093092;28;19908;-75
2022/09/15 10:20:51;;;;;;;;;;;16.10;99.90;;;;;;5093244;28;19908;-74
2022/09/15 10:23:16;;;;;;;;;;;16.20;99.90;;;;;;5093418;28;20294;-75
2022/09/15 10:25:42;;;;;;;;;;;16.20;99.90;;;;;;5092568;28;19999;-75
2022/09/15 10:28:08;;;;;;;;;;;16.20;99.90;;;;;;5093050;28;19995;-75
2022/09/15 10:30:34;;;;;;;;;;;16.30;99.90;;;;;;5092620;28;20341;-74
2022/09/15 10:33:33;;;;;;;;;;;16.20;99.90;;;;;;5092939;28;20002;-75
2022/09/15 10:36:06;;;;;;;;;;;16.20;99.90;;;;;;5080538;28;19909;-74
2022/09/15 10:38:43;;;;;;;;;;;16.20;99.90;;;;;;5092453;28;20307;-75
2022/09/15 10:41:12;;;;;;;;;;;16.30;99.90;;;;;;5125962;27;19908;-74
2022/09/15 10:43:56;;;;;;;;;;;16.20;99.90;;;;;;5092747;28;19980;-74
2022/09/15 10:46:40;;;;;;;;;;;16.20;99.90;;;;;;5093031;28;19920;-75
2022/09/15 10:49:21;;;;;;;;;;;16.10;99.90;;;;;;5091562;28;20002;-74
2022/09/15 10:51:49;;;;;;;;;;;16.10;99.90;;;;;;5088565;28;19917;-74
2022/09/15 10:54:27;;;;;;;;;;;16.10;99.90;;;;;;5081522;28;19916;-73
2022/09/15 10:57:00;;;;;;;;;;;16.20;99.90;;;;;;5081775;28;19913;-74
2022/09/15 10:59:25;;;;;;;;;;;16.10;99.90;;;;;;5092887;28;19908;-74
2022/09/15 11:02:00;;;;;;;;;;;16.00;99.90;;;;;;5096632;28;20264;-75
2022/09/15 11:04:29;;;;;;;;;;;16.00;99.90;;;;;;5089960;28;20391;-77
2022/09/15 11:07:14;;;;;;;;;;;15.90;99.90;;;;;;5085268;28;20007;-76
2022/09/15 11:09:39;;;;;;;;;;;15.80;99.90;;;;;;5090953;28;19908;-74
2022/09/15 11:12:25;;;;;;;;;;;15.80;99.90;;;;;;5096942;28;19912;-75
2022/09/15 11:14:53;;;;;;;;;;;15.80;99.90;;;;;;5096596;28;19930;-74
2022/09/15 11:17:28;;;;;;;;;;;15.90;99.90;;;;;;5096880;28;19916;-74
2022/09/15 11:19:54;;;;;;;;;;;15.90;99.90;;;;;;5096562;28;19908;-75
2022/09/15 11:22:25;;;;;;;;;;;16.00;99.90;;;;;;5096501;28;20042;-74
2022/09/15 11:25:02;;;;;;;;;;;16.10;99.90;;;;;;5095102;28;19929;-75
2022/09/15 11:27:31;;;;;;;;;;;16.10;99.90;;;;;;5096497;28;19908;-75
2022/09/15 11:30:12;;;;;;;;;;;16.10;99.90;;;;;;5096434;28;19908;-74
2022/09/15 11:32:43;;;;;;;;;;;16.10;99.90;;;;;;5095956;28;19912;-75
2022/09/15 11:35:21;;;;;;;;;;;16.10;99.90;;;;;;5096518;28;19919;-74
2022/09/15 11:37:49;;;;;;;;;;;16.10;99.90;;;;;;5095538;28;20632;-76
2022/09/15 11:40:18;;;;;;;;;;;16.10;99.90;;;;;;5112059;28;20019;-75
2022/09/15 11:43:04;;;;;;;;;;;16.00;99.90;;;;;;5095536;28;19919;-74
2022/09/15 11:45:34;;;;;;;;;;;16.00;99.90;;;;;;5091806;28;19973;-74
2022/09/15 11:48:09;;;;;;;;;;;16.00;99.90;;;;;;5096532;28;19908;-74
2022/09/15 11:50:36;;;;;;;;;;;16.10;99.90;;;;;;5095637;28;19908;-75
2022/09/15 11:53:02;;;;;;;;;;;16.20;99.90;;;;;;5095953;28;19959;-75
2022/09/15 11:55:34;;;;;;;;;;;16.30;99.90;;;;;;5095541;28;19951;-75
2022/09/15 11:58:17;;;;;;;;;;;16.40;99.90;;;;;;5096062;28;19954;-75
2022/09/15 12:01:05;;;;;;;;;;;16.40;99.90;;;;;;5089099;28;20285;-75
2022/09/15 12:03:35;;;;;;;;;;;16.50;99.90;;;;;;5078789;28;19908;-75
2022/09/15 12:06:20;;;;;;;;;;;16.50;99.90;;;;;;5092703;28;20375;-74
2022/09/15 12:08:52;;;;;;;;;;;16.70;99.90;;;;;;5083258;28;19920;-75
2022/09/15 12:11:21;;;;;;;;;;;16.70;99.90;;;;;;5083981;28;20007;-75
2022/09/15 12:13:46;;;;;;;;;;;16.80;99.90;;;;;;5082484;28;20293;-75
2022/09/15 12:16:12;;;;;;;;;;;17.00;99.90;;;;;;5084550;28;19909;-75
2022/09/15 12:18:43;;;;;;;;;;;17.10;99.90;;;;;;5082957;28;19908;-75
2022/09/15 12:21:18;;;;;;;;;;;17.10;99.90;;;;;;5086179;28;19919;-75
2022/09/15 12:23:58;;;;;;;;;;;17.10;99.90;;;;;;5054465;28;20003;-75
2022/09/15 12:26:25;;;;;;;;;;;17.00;99.90;;;;;;5055363;28;19916;-75
2022/09/15 12:28:57;;;;;;;;;;;17.00;99.90;;;;;;5054242;28;19936;-75
2022/09/15 12:31:25;;;;;;;;;;;17.00;99.90;;;;;;5055057;28;19919;-75
2022/09/15 12:33:50;;;;;;;;;;;17.00;99.90;;;;;;5054437;28;20104;-75
2022/09/15 12:36:34;;;;;;;;;;;17.00;99.90;;;;;;5055308;28;20008;-75
2022/09/15 12:39:01;;;;;;;;;;;17.10;99.90;;;;;;5055069;28;19975;-75
2022/09/15 12:41:27;;;;;;;;;;;17.10;99.90;;;;;;5053491;28;20277;-74
2022/09/15 12:44:03;;;;;;;;;;;17.10;99.90;;;;;;5054328;28;20592;-74
2022/09/15 12:46:29;;;;;;;;;;;17.10;99.90;;;;;;5056093;28;19908;-74
2022/09/15 12:48:58;;;;;;;;;;;17.20;99.90;;;;;;5086680;28;19908;-74
2022/09/15 12:51:26;;;;;;;;;;;17.30;99.90;;;;;;5055586;28;19916;-75
2022/09/15 12:54:03;;;;;;;;;;;17.40;99.90;;;;;;5055296;28;19924;-75
2022/09/15 12:56:33;;;;;;;;;;;17.60;99.90;;;;;;5055056;28;20274;-75
2022/09/15 12:59:03;;;;;;;;;;;17.70;99.90;;;;;;5086825;28;19966;-75
2022/09/15 13:01:30;;;;;;;;;;;17.70;99.90;;;;;;5083032;28;19909;-76
2022/09/15 13:03:58;;;;;;;;;;;17.60;99.90;;;;;;5126485;27;19909;-74
2022/09/15 13:06:25;;;;;;;;;;;17.50;99.90;;;;;;5093949;28;19912;-77
2022/09/15 13:08:52;;;;;;;;;;;17.30;99.90;;;;;;5094068;28;20323;-75
2022/09/15 13:11:24;;;;;;;;;;;17.00;99.90;;;;;;5094553;28;20261;-75
2022/09/15 13:14:10;;;;;;;;;;;16.80;99.90;;;;;;5094167;28;19923;-75
2022/09/15 13:16:35;;;;;;;;;;;16.80;99.90;;;;;;5093892;28;20007;-75
2022/09/15 13:19:11;;;;;;;;;;;16.80;99.90;;;;;;5094190;28;19967;-75
2022/09/15 13:21:38;;;;;;;;;;;16.90;99.90;;;;;;5093479;28;19942;-75
2022/09/15 13:24:05;;;;;;;;;;;17.00;99.90;;;;;;5083766;28;19912;-75
2022/09/15 13:26:32;;;;;;;;;;;17.00;99.90;;;;;;5082435;28;19938;-75
2022/09/15 13:28:59;;;;;;;;;;;17.20;99.90;;;;;;5090735;28;19908;-75
2022/09/15 13:31:24;;;;;;;;;;;17.30;99.90;;;;;;5093747;28;20284;-75
2022/09/15 13:34:15;;;;;;;;;;;17.40;99.90;;;;;;5093306;28;19912;-75
2022/09/15 13:36:53;;;;;;;;;;;17.50;99.90;;;;;;5093630;28;19945;-75
2022/09/15 13:39:37;;;;;;;;;;;17.60;99.90;;;;;;5093754;28;20361;-75
2022/09/15 13:42:14;;;;;;;;;;;17.70;99.90;;;;;;5092793;28;20313;-76
2022/09/15 13:44:55;;;;;;;;;;;17.80;99.90;;;;;;5092947;28;19920;-75
2022/09/15 13:47:30;;;;;;;;;;;17.80;99.90;;;;;;5094006;28;20269;-75
2022/09/15 13:50:08;;;;;;;;;;;17.70;99.90;;;;;;5093028;28;20658;-75
2022/09/15 13:52:36;;;;;;;;;;;17.70;99.90;;;;;;5092956;28;19922;-75
2022/09/15 13:55:11;;;;;;;;;;;17.70;99.90;;;;;;5079230;28;19912;-76
2022/09/15 13:57:40;;;;;;;;;;;17.70;99.90;;;;;;5080609;28;19978;-76
2022/09/15 14:00:12;;;;;;;;;;;17.70;99.90;;;;;;5082644;28;19916;-75
2022/09/15 14:02:41;;;;;;;;;;;17.70;99.90;;;;;;5082779;28;19908;-75
2022/09/15 14:05:07;;;;;;;;;;;17.60;99.90;;;;;;5080458;28;20289;-76
2022/09/15 14:07:32;;;;;;;;;;;17.60;99.90;;;;;;5081852;28;19912;-76
2022/09/15 14:09:58;;;;;;;;;;;17.70;99.90;;;;;;5082362;28;19919;-76
2022/09/15 14:12:23;;;;;;;;;;;17.80;99.90;;;;;;5092285;28;20361;-75
2022/09/15 14:14:52;;;;;;;;;;;17.90;99.90;;;;;;5092796;28;19912;-75
2022/09/15 14:17:19;;;;;;;;;;;17.90;99.90;;;;;;5093415;28;19909;-76
2022/09/15 14:19:47;;;;;;;;;;;18.10;99.90;;;;;;5092581;28;19958;-75
2022/09/15 14:22:31;;;;;;;;;;;18.10;99.90;;;;;;5093043;28;19908;-75
2022/09/15 14:24:58;;;;;;;;;;;18.20;99.90;;;;;;5092234;28;19965;-75
2022/09/15 14:27:26;;;;;;;;;;;18.30;99.90;;;;;;5093535;28;19957;-74
2022/09/15 14:30:02;;;;;;;;;;;18.30;99.90;;;;;;5092206;28;19915;-74